createdAt,value
2023-03-26T00:01:05.842Z,100.00
2023-03-26T00:03:33.941Z,100.00
2023-03-26T00:06:07.539Z,100.00
2023-03-26T00:08:35.704Z,100.00
2023-03-26T00:11:03.820Z,100.00
2023-03-26T00:13:30.566Z,100.00
2023-03-26T00:15:57.071Z,100.00
2023-03-26T00:18:30.701Z,100.00
2023-03-26T00:21:02.808Z,100.00
2023-03-26T00:23:31.028Z,100.00
2023-03-26T00:25:57.659Z,100.00
2023-03-26T00:28:26.344Z,100.00
2023-03-26T00:31:01.901Z,100.00
2023-03-26T00:33:29.241Z,100.00
2023-03-26T00:35:58.613Z,100.00
2023-03-26T00:38:26.470Z,100.00
2023-03-26T00:40:53.356Z,100.00
2023-03-26T00:43:21.444Z,100.00
2023-03-26T00:45:49.595Z,100.00
2023-03-26T00:48:17.329Z,100.00
2023-03-26T00:50:46.450Z,100.00
2023-03-26T00:53:14.213Z,100.00
2023-03-26T00:55:41.855Z,100.00
2023-03-26T00:58:12.109Z,100.00
2023-03-26T01:00:58.858Z,100.00
2023-03-26T01:03:29.280Z,100.00
2023-03-26T01:06:02.669Z,100.00
2023-03-26T01:08:34.026Z,100.00
2023-03-26T01:11:16.496Z,100.00
2023-03-26T01:13:48.542Z,100.00
2023-03-26T01:16:25.183Z,100.00
2023-03-26T01:18:53.811Z,100.00
2023-03-26T01:21:28.789Z,100.00
2023-03-26T01:24:05.194Z,100.00
2023-03-26T01:27:04.323Z,100.00
2023-03-26T01:29:39.327Z,100.00
2023-03-26T01:32:44.138Z,100.00
2023-03-26T01:35:39.836Z,100.00
2023-03-26T01:38:18.534Z,100.00
2023-03-26T01:41:06.949Z,100.00
2023-03-26T01:43:41.652Z,100.00
2023-03-26T01:46:10.771Z,100.00
2023-03-26T01:48:40.526Z,100.00
2023-03-26T01:51:08.523Z,100.00
2023-03-26T01:53:39.531Z,100.00
2023-03-26T01:56:16.659Z,100.00
2023-03-26T01:58:59.653Z,100.00
2023-03-26T02:02:01.208Z,100.00
2023-03-26T02:08:38.786Z,100.00
2023-03-26T02:11:11.745Z,100.00
2023-03-26T02:13:43.789Z,100.00
2023-03-26T02:16:16.494Z,100.00
2023-03-26T02:18:45.047Z,100.00
2023-03-26T02:21:21.420Z,100.00
2023-03-26T02:23:57.759Z,100.00
2023-03-26T02:26:25.524Z,100.00
2023-03-26T02:28:52.065Z,100.00
2023-03-26T02:31:19.425Z,100.00
2023-03-26T02:33:47.818Z,100.00
2023-03-26T02:36:14.572Z,100.00
2023-03-26T02:38:41.728Z,100.00
2023-03-26T02:41:08.460Z,100.00
2023-03-26T02:43:34.883Z,100.00
2023-03-26T02:46:01.459Z,100.00
2023-03-26T02:48:28.025Z,100.00
2023-03-26T02:50:54.798Z,100.00
2023-03-26T02:53:23.780Z,100.00
2023-03-26T02:55:50.585Z,100.00
2023-03-26T02:58:17.388Z,100.00
2023-03-26T03:00:46.793Z,100.00
2023-03-26T03:03:14.413Z,100.00
2023-03-26T03:05:43.277Z,100.00
2023-03-26T03:08:10.295Z,100.00
2023-03-26T03:10:37.779Z,100.00
2023-03-26T03:13:07.678Z,100.00
2023-03-26T03:15:34.945Z,100.00
2023-03-26T03:18:02.039Z,100.00
2023-03-26T03:20:30.264Z,100.00
2023-03-26T03:22:56.729Z,100.00
2023-03-26T03:25:23.354Z,100.00
2023-03-26T03:27:50.248Z,100.00
2023-03-26T03:30:17.055Z,100.00
2023-03-26T03:32:43.538Z,100.00
2023-03-26T03:35:10.156Z,100.00
2023-03-26T03:37:36.649Z,100.00
2023-03-26T03:40:05.793Z,100.00
2023-03-26T03:42:32.232Z,100.00
2023-03-26T03:44:58.697Z,100.00
2023-03-26T03:47:25.417Z,100.00
2023-03-26T03:49:51.978Z,100.00
2023-03-26T03:52:18.423Z,100.00
2023-03-26T03:54:45.124Z,100.00
2023-03-26T03:57:11.739Z,100.00
2023-03-26T03:59:38.200Z,100.00
2023-03-26T04:02:14.251Z,100.00
2023-03-26T04:04:40.779Z,100.00
2023-03-26T04:07:07.357Z,100.00
2023-03-26T04:09:34.028Z,100.00
2023-03-26T04:12:00.452Z,100.00
2023-03-26T04:14:26.950Z,100.00
2023-03-26T04:16:53.412Z,100.00
2023-03-26T04:19:20.123Z,100.00
2023-03-26T04:21:46.720Z,100.00
2023-03-26T04:24:13.572Z,100.00
2023-03-26T04:26:40.105Z,100.00
2023-03-26T04:29:11.927Z,100.00
2023-03-26T04:31:38.615Z,100.00
2023-03-26T04:34:14.352Z,100.00
2023-03-26T04:36:42.380Z,100.00
2023-03-26T04:39:13.134Z,100.00
2023-03-26T04:41:40.464Z,100.00
2023-03-26T04:44:06.965Z,100.00
2023-03-26T04:46:33.719Z,100.00
2023-03-26T04:49:01.449Z,100.00
2023-03-26T04:51:38.016Z,100.00
2023-03-26T04:54:07.272Z,100.00
2023-03-26T04:56:45.952Z,100.00
2023-03-26T04:59:17.005Z,100.00
2023-03-26T05:01:45.992Z,100.00
2023-03-26T05:04:13.692Z,100.00
2023-03-26T05:06:41.770Z,100.00
2023-03-26T05:09:10.686Z,100.00
2023-03-26T05:11:37.143Z,100.00
2023-03-26T05:14:03.977Z,100.00
2023-03-26T05:16:31.817Z,100.00
2023-03-26T05:18:58.318Z,100.00
2023-03-26T05:21:24.821Z,100.00
2023-03-26T05:23:51.420Z,100.00
2023-03-26T05:26:18.381Z,100.00
2023-03-26T05:28:44.860Z,100.00
2023-03-26T05:31:11.445Z,100.00
2023-03-26T05:33:38.434Z,100.00
2023-03-26T05:36:13.337Z,100.00
2023-03-26T05:38:40.051Z,100.00
2023-03-26T05:41:08.860Z,100.00
2023-03-26T05:43:36.234Z,100.00
2023-03-26T05:46:03.619Z,100.00
2023-03-26T05:48:30.264Z,100.00
2023-03-26T05:50:58.307Z,100.00
2023-03-26T05:53:26.844Z,100.00
2023-03-26T05:56:00.818Z,100.00
2023-03-26T05:58:29.568Z,100.00
2023-03-26T06:01:05.756Z,100.00
2023-03-26T06:03:33.867Z,100.00
2023-03-26T06:06:00.404Z,100.00
2023-03-26T06:08:27.366Z,100.00
2023-03-26T06:11:01.979Z,100.00
2023-03-26T06:13:28.616Z,100.00
2023-03-26T06:15:56.026Z,100.00
2023-03-26T06:18:23.025Z,100.00
2023-03-26T06:20:49.567Z,100.00
2023-03-26T06:23:16.140Z,100.00
2023-03-26T06:25:45.449Z,100.00
2023-03-26T06:28:12.720Z,100.00
2023-03-26T06:30:40.115Z,100.00
2023-03-26T06:33:06.774Z,100.00
2023-03-26T06:35:33.440Z,100.00
2023-03-26T06:37:59.964Z,100.00
2023-03-26T06:40:26.544Z,100.00
2023-03-26T06:43:08.108Z,100.00
2023-03-26T06:45:36.360Z,100.00
2023-03-26T06:48:02.926Z,100.00
2023-03-26T06:50:29.543Z,100.00
2023-03-26T06:52:56.731Z,100.00
2023-03-26T06:55:24.034Z,100.00
2023-03-26T06:57:52.206Z,100.00
2023-03-26T07:00:19.190Z,100.00
2023-03-26T07:02:46.320Z,100.00
2023-03-26T07:05:13.952Z,100.00
2023-03-26T07:07:46.239Z,100.00
2023-03-26T07:10:14.453Z,100.00
2023-03-26T07:12:42.385Z,100.00
2023-03-26T07:15:10.322Z,100.00
2023-03-26T07:17:37.419Z,100.00
2023-03-26T07:20:06.572Z,100.00
2023-03-26T07:22:33.593Z,100.00
2023-03-26T07:25:00.697Z,100.00
2023-03-26T07:28:04.555Z,100.00
2023-03-26T07:30:49.248Z,100.00
2023-03-26T07:33:33.863Z,100.00
2023-03-26T07:36:06.472Z,100.00
2023-03-26T07:38:38.996Z,100.00
2023-03-26T07:41:22.280Z,100.00
2023-03-26T07:43:55.580Z,100.00
2023-03-26T07:46:29.364Z,100.00
2023-03-26T07:48:58.270Z,100.00
2023-03-26T07:51:25.051Z,100.00
2023-03-26T07:53:51.791Z,100.00
2023-03-26T07:56:30.403Z,100.00
2023-03-26T07:59:01.954Z,100.00
2023-03-26T08:01:52.871Z,100.00
2023-03-26T08:04:42.507Z,100.00
2023-03-26T08:07:20.487Z,100.00
2023-03-26T08:10:03.448Z,100.00
2023-03-26T08:12:36.708Z,100.00
2023-03-26T08:15:16.200Z,100.00
2023-03-26T08:17:52.244Z,100.00
2023-03-26T08:20:26.133Z,100.00
2023-03-26T08:23:06.024Z,100.00
2023-03-26T08:25:40.368Z,100.00
2023-03-26T08:28:34.779Z,100.00
2023-03-26T08:31:03.052Z,100.00
2023-03-26T08:33:30.670Z,100.00
2023-03-26T08:35:57.140Z,100.00
2023-03-26T08:38:23.906Z,100.00
2023-03-26T08:40:56.614Z,100.00
2023-03-26T08:43:31.807Z,100.00
2023-03-26T08:46:30.450Z,100.00
2023-03-26T08:49:01.746Z,100.00
2023-03-26T08:51:49.751Z,100.00
2023-03-26T08:54:43.616Z,100.00
2023-03-26T08:57:40.824Z,100.00
2023-03-26T09:00:40.973Z,100.00
2023-03-26T09:03:32.174Z,100.00
2023-03-26T09:06:24.787Z,100.00
2023-03-26T09:09:39.614Z,100.00
2023-03-26T09:12:28.232Z,100.00
2023-03-26T09:15:10.247Z,100.00
2023-03-26T09:17:58.264Z,100.00
2023-03-26T09:21:05.853Z,100.00
2023-03-26T09:24:02.919Z,100.00
2023-03-26T09:26:38.081Z,100.00
2023-03-26T09:29:25.676Z,100.00
2023-03-26T09:32:14.103Z,100.00
2023-03-26T09:35:03.598Z,100.00
2023-03-26T09:37:56.176Z,100.00
2023-03-26T09:40:44.114Z,100.00
2023-03-26T09:43:36.766Z,100.00
2023-03-26T09:46:21.651Z,100.00
2023-03-26T09:49:06.579Z,100.00
2023-03-26T09:51:46.384Z,100.00
2023-03-26T09:54:27.152Z,100.00
2023-03-26T09:57:24.711Z,100.00
2023-03-26T10:00:13.553Z,100.00
2023-03-26T10:02:53.567Z,100.00
2023-03-26T10:05:42.536Z,100.00
2023-03-26T10:08:24.987Z,100.00
2023-03-26T10:11:03.308Z,100.00
2023-03-26T10:13:54.784Z,100.00
2023-03-26T10:16:46.167Z,100.00
2023-03-26T10:19:30.065Z,100.00
2023-03-26T10:22:15.881Z,100.00
2023-03-26T10:25:02.011Z,100.00
2023-03-26T10:27:44.318Z,100.00
2023-03-26T10:30:52.561Z,100.00
2023-03-26T10:33:37.524Z,100.00
2023-03-26T10:36:31.342Z,100.00
2023-03-26T10:39:37.858Z,100.00
2023-03-26T10:42:20.380Z,100.00
2023-03-26T10:44:59.000Z,100.00
2023-03-26T10:47:40.413Z,100.00
2023-03-26T10:50:29.331Z,100.00
2023-03-26T10:53:45.905Z,100.00
2023-03-26T10:56:33.014Z,100.00
2023-03-26T10:59:05.525Z,100.00
2023-03-26T11:01:35.027Z,100.00
2023-03-26T11:04:30.635Z,100.00
2023-03-26T11:07:16.591Z,100.00
2023-03-26T11:10:03.436Z,100.00
2023-03-26T11:12:52.961Z,100.00
2023-03-26T11:15:52.040Z,100.00
2023-03-26T11:18:36.069Z,100.00
2023-03-26T11:21:19.316Z,100.00
2023-03-26T11:24:11.666Z,100.00
2023-03-26T11:27:15.262Z,100.00
2023-03-26T11:30:00.621Z,100.00
2023-03-26T11:32:37.936Z,100.00
2023-03-26T11:35:15.683Z,100.00
2023-03-26T11:37:46.447Z,100.00
2023-03-26T11:40:28.261Z,100.00
2023-03-26T11:43:00.715Z,100.00
2023-03-26T11:45:31.676Z,100.00
2023-03-26T11:48:10.704Z,100.00
2023-03-26T11:50:44.113Z,100.00
2023-03-26T11:53:22.235Z,100.00
2023-03-26T11:55:53.707Z,100.00
2023-03-26T11:58:33.844Z,100.00
2023-03-26T12:01:12.637Z,100.00
2023-03-26T12:03:40.464Z,100.00
2023-03-26T12:06:25.576Z,100.00
2023-03-26T12:08:53.756Z,100.00
2023-03-26T12:11:27.102Z,100.00
2023-03-26T12:14:00.580Z,100.00
2023-03-26T12:16:28.118Z,100.00
2023-03-26T12:18:59.916Z,100.00
2023-03-26T12:21:27.003Z,100.00
2023-03-26T12:24:02.515Z,100.00
2023-03-26T12:26:30.804Z,100.00
2023-03-26T12:28:57.404Z,100.00
2023-03-26T12:31:26.454Z,97.71
2023-03-26T12:34:17.266Z,92.23
2023-03-26T12:36:52.903Z,90.43
2023-03-26T12:40:09.417Z,93.99
2023-03-26T12:44:46.088Z,93.30
2023-03-26T12:45:20.991Z,88.72
2023-03-26T12:47:57.630Z,81.68
2023-03-26T12:50:54.735Z,77.70
2023-03-26T12:53:42.070Z,75.38
2023-03-26T12:59:11.972Z,78.40
2023-03-26T13:01:53.733Z,86.07
2023-03-26T13:04:20.043Z,87.49
2023-03-26T13:07:01.673Z,91.83
2023-03-26T13:09:52.846Z,93.40
2023-03-26T13:12:35.693Z,93.92
2023-03-26T13:15:16.643Z,97.65
2023-03-26T13:17:43.066Z,100.00
2023-03-26T13:20:21.503Z,100.00
2023-03-26T13:23:23.286Z,100.00
2023-03-26T13:26:14.241Z,100.00
2023-03-26T13:28:46.658Z,100.00
2023-03-26T13:31:27.776Z,100.00
2023-03-26T13:34:13.012Z,100.00
2023-03-26T13:36:42.304Z,100.00
2023-03-26T13:39:22.107Z,100.00
2023-03-26T13:42:00.869Z,100.00
2023-03-26T13:44:30.362Z,100.00
2023-03-26T13:47:05.441Z,100.00
2023-03-26T13:49:43.713Z,100.00
2023-03-26T13:52:18.630Z,100.00
2023-03-26T13:54:54.787Z,100.00
2023-03-26T13:57:25.880Z,99.99
2023-03-26T13:59:58.322Z,99.46
2023-03-26T14:02:33.960Z,100.00
2023-03-26T14:05:21.154Z,97.22
2023-03-26T14:07:54.936Z,100.00
2023-03-26T14:10:25.662Z,100.00
2023-03-26T14:12:57.821Z,100.00
2023-03-26T14:15:34.600Z,100.00
2023-03-26T14:18:25.588Z,100.00
2023-03-26T14:21:22.865Z,100.00
2023-03-26T14:23:58.655Z,100.00
2023-03-26T14:26:29.136Z,100.00
2023-03-26T14:29:23.578Z,100.00
2023-03-26T14:32:24.574Z,100.00
2023-03-26T14:35:17.194Z,100.00
2023-03-26T14:38:11.641Z,100.00
2023-03-26T14:40:58.092Z,100.00
2023-03-26T14:43:58.554Z,100.00
2023-03-26T14:46:31.818Z,100.00
2023-03-26T14:49:20.238Z,100.00
2023-03-26T14:51:53.825Z,100.00
2023-03-26T14:54:24.852Z,100.00
2023-03-26T14:56:58.702Z,100.00
2023-03-26T14:59:55.897Z,100.00
2023-03-26T15:02:22.513Z,100.00
2023-03-26T15:05:36.312Z,100.00
2023-03-26T15:08:21.604Z,100.00
2023-03-26T15:11:20.863Z,100.00
2023-03-26T15:14:21.898Z,100.00
2023-03-26T15:17:13.282Z,100.00
2023-03-26T15:20:04.290Z,100.00
2023-03-26T15:23:07.998Z,100.00
2023-03-26T15:25:43.433Z,100.00
2023-03-26T15:28:38.459Z,100.00
2023-03-26T15:31:36.714Z,100.00
2023-03-26T15:34:34.120Z,100.00
2023-03-26T15:37:24.914Z,100.00
2023-03-26T15:40:07.789Z,100.00
2023-03-26T15:42:59.278Z,100.00
2023-03-26T15:45:44.813Z,100.00
2023-03-26T15:48:11.721Z,100.00
2023-03-26T15:50:44.423Z,100.00
2023-03-26T15:53:35.558Z,100.00
2023-03-26T15:56:07.909Z,100.00
2023-03-26T15:58:50.820Z,100.00
2023-03-26T16:01:37.187Z,100.00
2023-03-26T16:04:26.588Z,100.00
2023-03-26T16:07:31.549Z,100.00
2023-03-26T16:10:19.819Z,100.00
2023-03-26T16:12:55.013Z,100.00
2023-03-26T16:15:29.538Z,100.00
2023-03-26T16:18:19.216Z,100.00
2023-03-26T16:20:47.326Z,100.00
2023-03-26T16:23:47.292Z,100.00
2023-03-26T16:26:36.979Z,100.00
2023-03-26T16:29:15.806Z,100.00
2023-03-26T16:32:16.371Z,100.00
2023-03-26T16:34:48.904Z,100.00
2023-03-26T16:37:37.042Z,100.00
2023-03-26T16:40:22.482Z,100.00
2023-03-26T16:43:01.160Z,100.00
2023-03-26T16:45:33.658Z,100.00
2023-03-26T16:48:26.135Z,100.00
2023-03-26T16:50:58.482Z,100.00
2023-03-26T16:53:46.678Z,100.00
2023-03-26T16:56:29.162Z,100.00
2023-03-26T16:59:00.427Z,100.00
2023-03-26T17:01:41.216Z,100.00
2023-03-26T17:04:23.154Z,100.00
2023-03-26T17:07:20.466Z,100.00
2023-03-26T17:10:14.744Z,100.00
2023-03-26T17:12:48.365Z,100.00
2023-03-26T17:15:36.734Z,100.00
2023-03-26T17:18:30.441Z,100.00
2023-03-26T17:21:23.419Z,100.00
2023-03-26T17:24:22.976Z,100.00
2023-03-26T17:27:01.409Z,100.00
2023-03-26T17:29:43.922Z,100.00
2023-03-26T17:32:12.784Z,100.00
2023-03-26T17:34:46.639Z,100.00
2023-03-26T17:37:43.334Z,100.00
2023-03-26T17:40:47.693Z,100.00
2023-03-26T17:43:34.433Z,100.00
2023-03-26T17:46:03.728Z,100.00
2023-03-26T17:48:36.821Z,100.00
2023-03-26T17:51:32.066Z,100.00
2023-03-26T17:53:59.721Z,100.00
2023-03-26T17:56:32.143Z,100.00
2023-03-26T17:59:11.858Z,100.00
2023-03-26T18:01:42.138Z,100.00
2023-03-26T18:04:19.511Z,100.00
2023-03-26T18:07:04.115Z,100.00
2023-03-26T18:09:48.151Z,100.00
2023-03-26T18:12:39.046Z,100.00
2023-03-26T18:15:28.308Z,100.00
2023-03-26T18:18:13.532Z,100.00
2023-03-26T18:20:43.825Z,100.00
2023-03-26T18:23:20.913Z,100.00
2023-03-26T18:25:58.210Z,100.00
2023-03-26T18:28:35.520Z,100.00
2023-03-26T18:31:26.173Z,100.00
2023-03-26T18:33:59.113Z,100.00
2023-03-26T18:36:27.997Z,100.00
2023-03-26T18:39:01.289Z,100.00
2023-03-26T18:41:34.346Z,100.00
2023-03-26T18:44:02.564Z,100.00
2023-03-26T18:46:29.406Z,100.00
2023-03-26T18:48:56.876Z,100.00
2023-03-26T18:51:26.509Z,100.00
2023-03-26T18:53:59.867Z,100.00
2023-03-26T18:56:47.355Z,100.00
2023-03-26T18:59:28.190Z,100.00
2023-03-26T19:01:57.710Z,100.00
2023-03-26T19:04:31.007Z,100.00
2023-03-26T19:06:58.018Z,100.00
2023-03-26T19:09:31.952Z,100.00
2023-03-26T19:12:22.778Z,100.00
2023-03-26T19:15:13.632Z,97.87
2023-03-26T19:17:44.304Z,96.11
2023-03-26T19:20:39.170Z,96.02
2023-03-26T19:23:08.685Z,98.67
2023-03-26T19:25:41.427Z,96.29
2023-03-26T19:28:20.283Z,97.30
2023-03-26T19:30:47.156Z,93.46
2023-03-26T19:33:20.379Z,93.26
2023-03-26T19:35:53.763Z,92.20
2023-03-26T19:38:29.296Z,88.94
2023-03-26T19:40:58.012Z,92.54
2023-03-26T19:43:25.637Z,90.66
2023-03-26T19:46:00.112Z,90.65
2023-03-26T19:48:46.248Z,89.94
2023-03-26T19:51:20.937Z,92.69
2023-03-26T19:53:53.787Z,91.29
2023-03-26T19:56:22.211Z,92.45
2023-03-26T19:58:50.135Z,93.15
2023-03-26T20:01:25.527Z,92.48
2023-03-26T20:03:55.573Z,90.87
2023-03-26T20:06:34.097Z,93.49
2023-03-26T20:09:10.795Z,94.86
2023-03-26T20:11:39.720Z,96.83
2023-03-26T20:14:17.757Z,95.15
2023-03-26T20:16:45.447Z,97.67
2023-03-26T20:19:14.014Z,100.00
2023-03-26T20:21:41.725Z,100.00
2023-03-26T20:24:17.122Z,100.00
2023-03-26T20:26:44.841Z,100.00
2023-03-26T20:29:12.857Z,100.00
2023-03-26T20:31:41.644Z,100.00
2023-03-26T20:34:23.508Z,100.00
2023-03-26T20:36:57.233Z,100.00
2023-03-26T20:39:27.967Z,100.00
2023-03-26T20:41:56.141Z,100.00
2023-03-26T20:44:22.966Z,100.00
2023-03-26T20:46:50.731Z,100.00
2023-03-26T20:49:18.248Z,100.00
2023-03-26T20:51:45.650Z,100.00
2023-03-26T20:54:17.641Z,100.00
2023-03-26T20:56:45.711Z,100.00
2023-03-26T20:59:17.663Z,100.00
2023-03-26T21:01:44.469Z,100.00
2023-03-26T21:04:11.622Z,100.00
2023-03-26T21:06:38.135Z,100.00
2023-03-26T21:09:05.056Z,100.00
2023-03-26T21:11:50.031Z,100.00
2023-03-26T21:14:25.705Z,100.00
2023-03-26T21:16:52.521Z,100.00
2023-03-26T21:19:20.215Z,100.00
2023-03-26T21:21:52.869Z,100.00
2023-03-26T21:24:33.148Z,100.00
2023-03-26T21:27:08.496Z,100.00
2023-03-26T21:29:35.167Z,100.00
2023-03-26T21:32:01.969Z,100.00
2023-03-26T21:34:29.237Z,100.00
2023-03-26T21:36:56.041Z,100.00
2023-03-26T21:39:23.206Z,100.00
2023-03-26T21:42:04.961Z,100.00
2023-03-26T21:44:33.151Z,100.00
2023-03-26T21:46:59.963Z,100.00
2023-03-26T21:49:26.873Z,100.00
2023-03-26T21:51:53.657Z,100.00
2023-03-26T21:54:28.918Z,100.00
2023-03-26T21:57:04.073Z,100.00
2023-03-26T21:59:36.341Z,100.00
2023-03-26T22:02:12.650Z,100.00
2023-03-26T22:04:45.273Z,100.00
2023-03-26T22:07:27.386Z,100.00
2023-03-26T22:09:54.149Z,100.00
2023-03-26T22:12:20.573Z,100.00
2023-03-26T22:14:47.396Z,100.00
2023-03-26T22:17:13.877Z,100.00
2023-03-26T22:19:40.337Z,100.00
2023-03-26T22:22:06.758Z,100.00
2023-03-26T22:24:34.329Z,100.00
2023-03-26T22:27:01.126Z,100.00
2023-03-26T22:29:27.960Z,100.00
2023-03-26T22:31:54.457Z,100.00
2023-03-26T22:34:21.322Z,100.00
2023-03-26T22:36:47.795Z,100.00
2023-03-26T22:39:14.314Z,100.00
2023-03-26T22:41:40.872Z,100.00
2023-03-26T22:44:19.108Z,100.00
2023-03-26T22:46:48.855Z,100.00
2023-03-26T22:49:15.761Z,100.00
2023-03-26T22:51:42.219Z,100.00
2023-03-26T22:54:09.426Z,100.00
2023-03-26T22:56:37.028Z,100.00
2023-03-26T22:59:03.844Z,100.00
2023-03-26T23:01:30.664Z,100.00
2023-03-26T23:03:57.850Z,100.00
2023-03-26T23:06:25.092Z,100.00
2023-03-26T23:08:51.675Z,100.00
2023-03-26T23:11:21.794Z,100.00
2023-03-26T23:13:48.841Z,100.00
2023-03-26T23:16:17.157Z,100.00
2023-03-26T23:18:43.856Z,100.00
2023-03-26T23:21:19.311Z,100.00
2023-03-26T23:23:47.035Z,100.00
2023-03-26T23:26:14.838Z,100.00
2023-03-26T23:28:41.785Z,100.00
2023-03-26T23:31:10.682Z,100.00
2023-03-26T23:33:38.958Z,100.00
2023-03-26T23:36:10.456Z,100.00
2023-03-26T23:38:43.553Z,100.00
2023-03-26T23:41:15.342Z,100.00
2023-03-26T23:43:54.878Z,100.00
2023-03-26T23:46:24.533Z,100.00
2023-03-26T23:48:51.897Z,100.00
2023-03-26T23:51:22.271Z,100.00
2023-03-26T23:53:49.306Z,100.00
2023-03-26T23:56:16.288Z,100.00
2023-03-26T23:58:43.407Z,100.00
